createdAt,value
2019-02-18T00:00:46.507Z,100503.03
2019-02-18T00:03:15.242Z,100501.50
2019-02-18T00:05:43.963Z,100497.84
2019-02-18T00:08:12.789Z,100495.96
2019-02-18T00:10:41.511Z,100488.17
2019-02-18T00:13:10.238Z,100488.89
2019-02-18T00:15:39.009Z,100494.05
2019-02-18T00:18:07.835Z,100491.28
2019-02-18T00:20:36.554Z,100493.12
2019-02-18T00:23:05.310Z,100496.76
2019-02-18T00:25:34.035Z,100493.41
2019-02-18T00:28:02.755Z,100492.56
2019-02-18T00:30:31.510Z,100498.76
2019-02-18T00:33:00.247Z,100492.55
2019-02-18T00:35:28.973Z,100489.34
2019-02-18T00:37:57.890Z,100487.84
2019-02-18T00:40:26.616Z,100484.34
2019-02-18T00:42:55.387Z,100479.52
2019-02-18T00:45:24.185Z,100477.59
2019-02-18T00:47:52.913Z,100475.95
2019-02-18T00:50:21.645Z,100478.87
2019-02-18T00:52:50.425Z,100474.47
2019-02-18T00:55:19.133Z,100476.97
2019-02-18T00:57:47.866Z,100475.87
2019-02-18T01:00:17.654Z,100470.45
2019-02-18T01:02:46.589Z,100470.31
2019-02-18T01:05:15.324Z,100465.13
2019-02-18T01:07:44.114Z,100455.85
2019-02-18T01:10:13.349Z,100456.56
2019-02-18T01:12:42.094Z,100457.41
2019-02-18T01:15:13.307Z,100455.81
2019-02-18T01:17:42.043Z,100458.52
2019-02-18T01:20:12.758Z,100458.69
2019-02-18T01:22:41.514Z,100453.90
2019-02-18T01:25:12.542Z,100449.42
2019-02-18T01:27:41.278Z,100443.07
2019-02-18T01:30:15.252Z,100436.45
2019-02-18T01:32:44.181Z,100429.75
2019-02-18T01:35:13.106Z,100432.33
2019-02-18T01:37:45.825Z,100432.91
2019-02-18T01:40:14.317Z,100429.36
2019-02-18T01:42:43.233Z,100425.81
2019-02-18T01:45:14.034Z,100424.47
2019-02-18T01:47:42.758Z,100424.34
2019-02-18T01:50:13.684Z,100423.23
2019-02-18T01:52:42.568Z,100424.52
2019-02-18T01:55:12.620Z,100422.53
2019-02-18T01:57:41.439Z,100420.66
2019-02-18T02:00:17.167Z,100424.08
2019-02-18T02:02:45.901Z,100421.47
2019-02-18T02:05:15.854Z,100427.55
2019-02-18T02:07:44.806Z,100420.71
2019-02-18T02:10:15.451Z,100422.88
2019-02-18T02:12:44.172Z,100419.84
2019-02-18T02:15:27.464Z,100425.23
2019-02-18T02:17:56.195Z,100421.61
2019-02-18T02:20:24.922Z,100426.36
2019-02-18T02:22:53.963Z,100427.64
2019-02-18T02:25:22.693Z,100423.17
2019-02-18T02:27:51.424Z,100422.59
2019-02-18T02:30:20.743Z,100423.00
2019-02-18T02:32:49.455Z,100423.70
2019-02-18T02:35:18.189Z,100429.48
2019-02-18T02:37:47.054Z,100427.30
2019-02-18T02:40:15.781Z,100424.09
2019-02-18T02:42:45.346Z,100424.50
2019-02-18T02:45:14.152Z,100421.81
2019-02-18T02:47:42.882Z,100423.17
2019-02-18T02:50:11.610Z,100424.64
2019-02-18T02:52:40.494Z,100430.47
2019-02-18T02:55:09.232Z,100419.69
2019-02-18T02:57:37.969Z,100420.79
2019-02-18T03:00:12.463Z,100422.19
2019-02-18T03:02:41.185Z,100433.17
2019-02-18T03:05:10.016Z,100428.92
2019-02-18T03:07:38.827Z,100430.98
2019-02-18T03:10:09.924Z,100428.28
2019-02-18T03:12:38.650Z,100425.53
2019-02-18T03:15:12.649Z,100424.13
2019-02-18T03:17:41.388Z,100415.90
2019-02-18T03:20:10.624Z,100416.70
2019-02-18T03:22:39.833Z,100421.13
2019-02-18T03:25:17.463Z,100425.40
2019-02-18T03:27:46.535Z,100421.38
2019-02-18T03:30:34.619Z,100421.70
2019-02-18T03:33:04.441Z,100423.59
2019-02-18T03:35:33.169Z,100422.09
2019-02-18T03:38:02.334Z,100422.89
2019-02-18T03:40:31.441Z,100422.58
2019-02-18T03:43:00.166Z,100422.67
2019-02-18T03:45:28.916Z,100421.09
2019-02-18T03:47:57.874Z,100418.42
2019-02-18T03:50:26.600Z,100419.89
2019-02-18T03:52:55.346Z,100423.47
2019-02-18T03:55:24.151Z,100430.36
2019-02-18T03:57:52.908Z,100432.34
2019-02-18T04:00:21.623Z,100433.32
2019-02-18T04:02:50.541Z,100434.00
2019-02-18T04:05:19.279Z,100432.30
2019-02-18T04:07:48.014Z,100430.83
2019-02-18T04:10:16.783Z,100430.83
2019-02-18T04:12:45.519Z,100433.19
2019-02-18T04:15:16.151Z,100435.27
2019-02-18T04:17:44.935Z,100435.53
2019-02-18T04:20:13.661Z,100439.55
2019-02-18T04:22:42.396Z,100439.36
2019-02-18T04:25:11.400Z,100438.59
2019-02-18T04:27:40.128Z,100434.16
2019-02-18T04:30:13.528Z,100433.39
2019-02-18T04:32:41.944Z,100435.76
2019-02-18T04:35:10.671Z,100441.70
2019-02-18T04:37:39.457Z,100440.02
2019-02-18T04:40:08.952Z,100439.45
2019-02-18T04:42:37.695Z,100440.94
2019-02-18T04:45:09.224Z,100440.74
2019-02-18T04:47:38.177Z,100439.09
2019-02-18T04:50:08.509Z,100440.16
2019-02-18T04:52:37.241Z,100434.16
2019-02-18T04:55:09.114Z,100441.55
2019-02-18T04:57:37.951Z,100441.84
2019-02-18T05:00:11.175Z,100447.31
2019-02-18T05:02:40.074Z,100449.02
2019-02-18T05:05:10.309Z,100449.30
2019-02-18T05:07:39.034Z,100447.82
2019-02-18T05:10:12.654Z,100448.18
2019-02-18T05:12:41.395Z,100450.56
2019-02-18T05:15:10.604Z,100455.87
2019-02-18T05:17:39.793Z,100458.84
2019-02-18T05:20:09.238Z,100462.92
2019-02-18T05:22:37.963Z,100468.25
2019-02-18T05:25:12.878Z,100473.35
2019-02-18T05:27:41.007Z,100474.42
2019-02-18T05:30:11.649Z,100475.83
2019-02-18T05:32:40.456Z,100481.19
2019-02-18T05:35:09.178Z,100486.41
2019-02-18T05:37:37.927Z,100493.29
2019-02-18T05:40:08.733Z,100495.00
2019-02-18T05:42:37.556Z,100496.19
2019-02-18T05:45:08.347Z,100496.37
2019-02-18T05:47:37.255Z,100502.78
2019-02-18T05:50:08.234Z,100508.34
2019-02-18T05:52:37.071Z,100513.16
2019-02-18T05:55:07.264Z,100521.36
2019-02-18T05:57:36.000Z,100522.25
2019-02-18T06:00:07.178Z,100522.63
2019-02-18T06:02:36.426Z,100519.37
2019-02-18T06:05:06.542Z,100515.49
2019-02-18T06:07:35.275Z,100524.06
2019-02-18T06:10:05.960Z,100528.53
2019-02-18T06:12:34.700Z,100527.02
2019-02-18T06:15:03.441Z,100525.73
2019-02-18T06:17:32.511Z,100525.67
2019-02-18T06:20:01.239Z,100535.69
2019-02-18T06:22:29.976Z,100543.11
2019-02-18T06:24:58.759Z,100535.70
2019-02-18T06:27:27.486Z,100538.36
2019-02-18T06:29:56.223Z,100534.09
2019-02-18T06:32:25.000Z,100530.45
2019-02-18T06:34:53.735Z,100531.80
2019-02-18T06:37:22.440Z,100533.97
2019-02-18T06:39:51.240Z,100537.19
2019-02-18T06:42:19.975Z,100538.34
2019-02-18T06:44:50.274Z,100545.22
2019-02-18T06:47:20.626Z,100556.69
2019-02-18T06:49:49.342Z,100561.94
2019-02-18T06:52:18.100Z,100559.68
2019-02-18T06:54:47.264Z,100554.92
2019-02-18T06:57:23.588Z,100557.69
2019-02-18T06:59:53.491Z,100559.97
2019-02-18T07:02:23.773Z,100556.38
2019-02-18T07:04:54.075Z,100554.60
2019-02-18T07:07:24.874Z,100553.48
2019-02-18T07:09:57.986Z,100549.27
2019-02-18T07:12:28.289Z,100556.16
2019-02-18T07:14:57.177Z,100553.47
2019-02-18T07:17:25.912Z,100552.30
2019-02-18T07:19:56.126Z,100556.41
2019-02-18T07:22:24.921Z,100558.55
2019-02-18T07:24:53.632Z,100565.20
2019-02-18T07:27:22.363Z,100562.69
2019-02-18T07:29:51.437Z,100560.39
2019-02-18T07:32:20.166Z,100562.46
2019-02-18T07:34:48.897Z,100557.81
2019-02-18T07:37:18.245Z,100554.31
2019-02-18T07:39:46.949Z,100558.39
2019-02-18T07:42:15.671Z,100563.16
2019-02-18T07:44:44.550Z,100552.83
2019-02-18T07:47:13.269Z,100553.97
2019-02-18T07:49:42.003Z,100547.17
2019-02-18T07:52:10.876Z,100548.25
2019-02-18T07:54:39.653Z,100555.05
2019-02-18T07:57:08.379Z,100547.94
2019-02-18T07:59:37.595Z,100547.23
2019-02-18T08:02:06.548Z,100548.22
2019-02-18T08:04:35.273Z,100552.58
2019-02-18T08:07:04.154Z,100548.53
2019-02-18T08:09:32.881Z,100551.69
2019-02-18T08:12:01.630Z,100554.28
2019-02-18T08:14:30.628Z,100554.00
2019-02-18T08:16:59.348Z,100551.66
2019-02-18T08:19:28.090Z,100548.02
2019-02-18T08:21:56.879Z,100551.42
2019-02-18T08:24:25.632Z,100553.75
2019-02-18T08:26:54.352Z,100551.38
2019-02-18T08:29:23.250Z,100545.67
2019-02-18T08:31:51.973Z,100546.94
2019-02-18T08:34:20.701Z,100553.47
2019-02-18T08:36:49.583Z,100547.66
2019-02-18T08:39:18.327Z,100553.23
2019-02-18T08:41:47.077Z,100558.97
2019-02-18T08:44:16.041Z,100552.15
2019-02-18T08:46:44.774Z,100550.03
2019-02-18T08:49:13.504Z,100551.53
2019-02-18T08:51:42.297Z,100555.34
2019-02-18T08:54:11.029Z,100559.17
2019-02-18T08:56:39.790Z,100556.17
2019-02-18T08:59:10.952Z,100555.95
2019-02-18T09:01:39.055Z,100552.13
2019-02-18T09:04:07.797Z,100562.92
2019-02-18T09:06:36.679Z,100555.61
2019-02-18T09:09:06.228Z,100557.66
2019-02-18T09:11:34.954Z,100550.41
2019-02-18T09:14:03.750Z,100557.52
2019-02-18T09:16:32.474Z,100555.09
2019-02-18T09:19:01.214Z,100554.44
2019-02-18T09:21:32.224Z,100555.70
2019-02-18T09:24:17.799Z,100544.47
2019-02-18T09:26:46.611Z,100543.50
2019-02-18T09:29:15.342Z,100541.48
2019-02-18T09:31:44.069Z,100541.11
2019-02-18T09:34:12.958Z,100546.44
2019-02-18T09:36:41.687Z,100537.33
2019-02-18T09:39:15.806Z,100536.33
2019-02-18T09:41:44.599Z,100534.66
2019-02-18T09:44:13.330Z,100531.78
2019-02-18T09:46:42.073Z,100531.34
2019-02-18T09:49:10.859Z,100528.61
2019-02-18T09:51:39.583Z,100528.91
2019-02-18T09:54:08.315Z,100522.19
2019-02-18T09:56:37.156Z,100519.34
2019-02-18T09:59:05.906Z,100517.58
2019-02-18T10:01:34.634Z,100514.69
2019-02-18T10:04:03.889Z,100508.72
2019-02-18T10:06:32.626Z,100516.06
2019-02-18T10:09:01.354Z,100509.33
2019-02-18T10:11:30.157Z,100507.72
2019-02-18T10:13:58.895Z,100505.41
2019-02-18T10:16:27.619Z,100503.73
2019-02-18T10:18:56.398Z,100499.64
2019-02-18T10:21:25.136Z,100496.95
2019-02-18T10:23:53.870Z,100494.91
2019-02-18T10:26:22.730Z,100493.90
2019-02-18T10:28:51.467Z,100485.65
2019-02-18T10:31:20.206Z,100485.22
2019-02-18T10:33:49.083Z,100473.89
2019-02-18T10:36:17.822Z,100475.28
2019-02-18T10:38:46.560Z,100470.87
2019-02-18T10:41:15.459Z,100464.80
2019-02-18T10:43:44.199Z,100459.91
2019-02-18T10:46:12.919Z,100455.41
2019-02-18T10:48:42.041Z,100445.91
2019-02-18T10:51:10.780Z,100447.42
2019-02-18T10:53:39.641Z,100440.16
2019-02-18T10:56:08.530Z,100434.79
2019-02-18T10:58:37.267Z,100429.58
2019-02-18T11:01:06.412Z,100425.17
2019-02-18T11:03:35.294Z,100423.25
2019-02-18T11:06:04.032Z,100415.48
2019-02-18T11:08:32.767Z,100409.80
2019-02-18T11:11:01.902Z,100406.28
2019-02-18T11:13:30.628Z,100396.58
2019-02-18T11:15:59.358Z,100395.27
2019-02-18T11:18:28.239Z,100390.32
2019-02-18T11:20:56.971Z,100388.72
2019-02-18T11:23:26.070Z,100389.63
2019-02-18T11:25:55.058Z,100381.77
2019-02-18T11:28:23.801Z,100385.97
2019-02-18T11:30:52.526Z,100380.64
2019-02-18T11:33:21.683Z,100385.34
2019-02-18T11:35:50.414Z,100380.19
2019-02-18T11:38:19.522Z,100376.64
2019-02-18T11:40:48.322Z,100372.59
2019-02-18T11:43:17.066Z,100367.39
2019-02-18T11:45:45.794Z,100369.65
2019-02-18T11:48:15.032Z,100366.68
2019-02-18T11:50:43.761Z,100364.61
2019-02-18T11:53:12.677Z,100356.66
2019-02-18T11:55:41.544Z,100352.99
2019-02-18T11:58:10.263Z,100357.78
2019-02-18T12:00:38.993Z,100347.64
2019-02-18T12:03:12.313Z,100348.09
2019-02-18T12:05:38.400Z,100343.66
2019-02-18T12:08:07.904Z,100338.77
2019-02-18T12:10:36.707Z,100331.05
2019-02-18T12:13:05.432Z,100339.09
2019-02-18T12:15:34.170Z,100327.78
2019-02-18T12:18:04.248Z,100325.72
2019-02-18T12:20:32.979Z,100318.83
2019-02-18T12:23:02.094Z,100317.36
2019-02-18T12:25:30.994Z,100309.72
2019-02-18T12:27:59.718Z,100311.45
2019-02-18T12:30:28.470Z,100304.56
2019-02-18T12:32:57.252Z,100307.47
2019-02-18T12:35:31.093Z,100304.86
2019-02-18T12:37:56.459Z,100300.35
2019-02-18T12:40:26.036Z,100297.23
2019-02-18T12:42:54.777Z,100291.36
2019-02-18T12:45:23.499Z,100291.87
2019-02-18T12:47:52.385Z,100292.70
2019-02-18T12:50:21.193Z,100287.72
2019-02-18T12:52:49.927Z,100285.17
2019-02-18T12:55:19.188Z,100290.09
2019-02-18T12:57:47.999Z,100288.27
2019-02-18T13:00:17.308Z,100286.76
2019-02-18T13:02:46.154Z,100284.47
2019-02-18T13:05:15.063Z,100282.97
2019-02-18T13:07:43.790Z,100286.73
2019-02-18T13:10:13.246Z,100279.20
2019-02-18T13:12:42.370Z,100286.12
2019-02-18T13:15:18.544Z,100287.25
2019-02-18T13:17:47.280Z,100280.84
2019-02-18T13:20:16.007Z,100285.56
2019-02-18T13:22:44.876Z,100278.69
2019-02-18T13:25:13.810Z,100273.91
2019-02-18T13:27:44.012Z,100274.70
2019-02-18T13:30:18.295Z,100267.20
2019-02-18T13:32:47.090Z,100266.23
2019-02-18T13:35:15.865Z,100259.02
2019-02-18T13:37:45.091Z,100258.43
2019-02-18T13:40:16.432Z,100254.42
2019-02-18T13:42:45.537Z,100255.38
2019-02-18T13:45:14.576Z,100249.23
2019-02-18T13:47:43.302Z,100252.48
2019-02-18T13:50:13.025Z,100248.80
2019-02-18T13:52:41.816Z,100245.05
2019-02-18T13:55:12.138Z,100250.37
2019-02-18T13:57:41.334Z,100244.60
2019-02-18T14:00:19.663Z,100250.47
2019-02-18T14:02:48.996Z,100247.70
2019-02-18T14:05:18.814Z,100247.59
2019-02-18T14:07:47.666Z,100241.98
2019-02-18T14:10:16.870Z,100242.27
2019-02-18T14:12:45.594Z,100249.68
2019-02-18T14:15:16.086Z,100241.37
2019-02-18T14:17:44.915Z,100240.86
2019-02-18T14:20:15.541Z,100237.38
2019-02-18T14:22:44.673Z,100238.30
2019-02-18T14:25:14.878Z,100236.52
2019-02-18T14:27:43.597Z,100239.86
2019-02-18T14:30:15.084Z,100233.43
2019-02-18T14:32:43.910Z,100235.97
2019-02-18T14:35:12.848Z,100236.63
2019-02-18T14:37:41.886Z,100231.58
2019-02-18T14:40:12.393Z,100232.93
2019-02-18T14:42:41.209Z,100236.23
2019-02-18T14:45:10.997Z,100229.83
2019-02-18T14:47:40.111Z,100235.80
2019-02-18T14:50:10.134Z,100232.62
2019-02-18T14:52:39.253Z,100233.81
2019-02-18T14:55:09.260Z,100233.83
2019-02-18T14:57:37.990Z,100242.77
2019-02-18T15:00:13.059Z,100238.23
2019-02-18T15:02:41.790Z,100237.33
2019-02-18T15:05:10.531Z,100233.91
2019-02-18T15:07:39.844Z,100238.47
2019-02-18T15:10:10.170Z,100231.37
2019-02-18T15:12:39.012Z,100239.33
2019-02-18T15:15:07.995Z,100239.78
2019-02-18T15:17:36.722Z,100243.37
2019-02-18T15:20:07.558Z,100245.00
2019-02-18T15:22:36.926Z,100240.92
2019-02-18T15:25:08.046Z,100241.22
2019-02-18T15:27:36.802Z,100242.25
2019-02-18T15:30:14.339Z,100240.94
2019-02-18T15:32:43.051Z,100237.05
2019-02-18T15:35:11.978Z,100244.14
2019-02-18T15:37:41.110Z,100235.20
2019-02-18T15:40:12.245Z,100244.53
2019-02-18T15:42:42.509Z,100237.24
2019-02-18T15:45:11.887Z,100241.05
2019-02-18T15:47:40.618Z,100248.47
2019-02-18T15:50:12.028Z,100245.09
2019-02-18T15:52:42.946Z,100247.70
2019-02-18T15:55:12.965Z,100246.10
2019-02-18T15:57:41.701Z,100244.88
2019-02-18T16:00:19.457Z,100252.75
2019-02-18T16:02:48.604Z,100250.33
2019-02-18T16:05:17.375Z,100253.19
2019-02-18T16:07:46.220Z,100261.71
2019-02-18T16:10:14.956Z,100257.47
2019-02-18T16:12:50.541Z,100261.02
2019-02-18T16:15:14.280Z,100260.48
2019-02-18T16:17:43.707Z,100264.56
2019-02-18T16:20:14.193Z,100261.20
2019-02-18T16:22:43.062Z,100266.48
2019-02-18T16:25:17.268Z,100272.48
2019-02-18T16:27:46.012Z,100269.39
2019-02-18T16:30:15.848Z,100268.21
2019-02-18T16:32:44.776Z,100272.89
2019-02-18T16:35:13.757Z,100270.65
2019-02-18T16:37:43.277Z,100267.39
2019-02-18T16:40:14.539Z,100272.80
2019-02-18T16:42:48.106Z,100277.52
2019-02-18T16:45:17.013Z,100274.23
2019-02-18T16:47:45.747Z,100276.97
2019-02-18T16:50:15.000Z,100273.86
2019-02-18T16:52:43.743Z,100278.91
2019-02-18T16:55:13.779Z,100281.55
2019-02-18T16:57:43.064Z,100281.94
2019-02-18T17:00:19.472Z,100285.08
2019-02-18T17:02:48.310Z,100282.08
2019-02-18T17:05:17.045Z,100285.53
2019-02-18T17:07:45.781Z,100294.20
2019-02-18T17:10:15.165Z,100296.89
2019-02-18T17:12:44.068Z,100303.69
2019-02-18T17:15:13.811Z,100301.03
2019-02-18T17:17:42.672Z,100298.95
2019-02-18T17:20:11.402Z,100305.55
2019-02-18T17:22:40.547Z,100310.36
2019-02-18T17:25:12.151Z,100313.51
2019-02-18T17:27:40.892Z,100314.89
2019-02-18T17:30:14.807Z,100311.56
2019-02-18T17:32:43.675Z,100313.91
2019-02-18T17:35:13.805Z,100316.80
2019-02-18T17:37:42.530Z,100313.92
2019-02-18T17:40:13.577Z,100315.48
2019-02-18T17:42:42.880Z,100320.23
2019-02-18T17:45:13.516Z,100315.81
2019-02-18T17:47:42.524Z,100325.19
2019-02-18T17:50:13.555Z,100322.09
2019-02-18T17:52:42.310Z,100322.84
2019-02-18T17:55:13.480Z,100324.13
2019-02-18T17:57:42.679Z,100324.66
2019-02-18T18:00:21.975Z,100329.09
2019-02-18T18:02:50.705Z,100329.13
2019-02-18T18:05:19.439Z,100326.08
2019-02-18T18:07:48.522Z,100326.62
2019-02-18T18:10:17.639Z,100324.80
2019-02-18T18:12:46.375Z,100325.59
2019-02-18T18:15:17.138Z,100331.25
2019-02-18T18:17:46.124Z,100327.63
2019-02-18T18:20:17.309Z,100332.55
2019-02-18T18:22:46.187Z,100334.66
2019-02-18T18:25:15.678Z,100329.44
2019-02-18T18:27:44.407Z,100329.20
2019-02-18T18:30:18.092Z,100334.34
2019-02-18T18:32:46.875Z,100334.14
2019-02-18T18:35:15.610Z,100340.47
2019-02-18T18:37:44.393Z,100336.33
2019-02-18T18:40:19.138Z,100342.06
2019-02-18T18:42:47.871Z,100342.06
2019-02-18T18:45:17.934Z,100337.38
2019-02-18T18:47:46.680Z,100340.50
2019-02-18T18:50:19.761Z,100336.86
2019-02-18T18:52:48.541Z,100337.94
2019-02-18T18:55:17.288Z,100342.62
2019-02-18T18:57:46.013Z,100342.86
2019-02-18T19:00:22.396Z,100341.56
2019-02-18T19:02:51.159Z,100343.66
2019-02-18T19:05:20.236Z,100345.98
2019-02-18T19:07:49.237Z,100350.97
2019-02-18T19:10:17.956Z,100353.28
2019-02-18T19:12:46.685Z,100355.59
2019-02-18T19:15:16.470Z,100353.07
2019-02-18T19:17:45.225Z,100353.19
2019-02-18T19:20:15.041Z,100355.41
2019-02-18T19:22:43.988Z,100359.53
2019-02-18T19:25:13.325Z,100364.53
2019-02-18T19:27:42.062Z,100357.97
2019-02-18T19:30:14.103Z,100368.03
2019-02-18T19:32:45.253Z,100359.93
2019-02-18T19:35:13.986Z,100368.59
2019-02-18T19:37:43.205Z,100365.63
2019-02-18T19:40:14.037Z,100374.09
2019-02-18T19:42:42.782Z,100370.67
2019-02-18T19:45:14.839Z,100376.44
2019-02-18T19:47:43.755Z,100377.52
2019-02-18T19:50:12.491Z,100385.19
2019-02-18T19:52:41.286Z,100383.25
2019-02-18T19:55:11.830Z,100389.91
2019-02-18T19:57:40.570Z,100386.41
2019-02-18T20:00:17.944Z,100383.24
2019-02-18T20:02:46.817Z,100382.13
2019-02-18T20:05:17.004Z,100383.59
2019-02-18T20:07:47.299Z,100379.16
2019-02-18T20:10:16.175Z,100382.69
2019-02-18T20:12:44.957Z,100377.17
2019-02-18T20:15:15.327Z,100379.14
2019-02-18T20:17:44.062Z,100377.22
2019-02-18T20:20:17.033Z,100375.00
2019-02-18T20:22:45.968Z,100380.34
2019-02-18T20:25:14.786Z,100376.41
2019-02-18T20:27:43.523Z,100379.30
2019-02-18T20:30:16.741Z,100375.55
2019-02-18T20:32:45.573Z,100378.44
2019-02-18T20:35:14.306Z,100372.99
2019-02-18T20:37:43.098Z,100373.07
2019-02-18T20:40:12.252Z,100373.25
2019-02-18T20:42:41.466Z,100375.50
2019-02-18T20:45:14.015Z,100378.38
2019-02-18T20:47:42.744Z,100376.41
2019-02-18T20:50:13.651Z,100375.79
2019-02-18T20:52:42.726Z,100381.10
2019-02-18T20:55:15.563Z,100382.36
2019-02-18T20:57:44.298Z,100383.11
2019-02-18T21:00:18.562Z,100378.23
2019-02-18T21:02:48.330Z,100376.06
2019-02-18T21:05:17.056Z,100379.05
2019-02-18T21:07:45.866Z,100375.27
2019-02-18T21:10:19.948Z,100371.67
2019-02-18T21:12:48.682Z,100371.21
2019-02-18T21:15:17.952Z,100372.31
2019-02-18T21:17:46.687Z,100369.17
2019-02-18T21:20:15.969Z,100366.70
2019-02-18T21:22:44.855Z,100376.92
2019-02-18T21:25:13.786Z,100371.38
2019-02-18T21:27:42.527Z,100373.93
2019-02-18T21:30:15.713Z,100375.63
2019-02-18T21:32:44.457Z,100375.22
2019-02-18T21:35:13.291Z,100368.66
2019-02-18T21:37:42.552Z,100365.19
2019-02-18T21:40:13.951Z,100370.61
2019-02-18T21:42:42.675Z,100377.19
2019-02-18T21:45:14.896Z,100373.88
2019-02-18T21:47:43.689Z,100376.33
2019-02-18T21:50:12.852Z,100374.66
2019-02-18T21:52:41.804Z,100376.49
2019-02-18T21:55:13.568Z,100377.79
2019-02-18T21:57:42.301Z,100369.77
2019-02-18T22:00:18.468Z,100376.78
2019-02-18T22:02:47.394Z,100381.12
2019-02-18T22:05:16.613Z,100380.81
2019-02-18T22:07:53.506Z,100380.02
2019-02-18T22:10:22.236Z,100377.78
2019-02-18T22:12:50.964Z,100372.00
2019-02-18T22:15:19.826Z,100382.30
2019-02-18T22:17:48.559Z,100381.09
2019-02-18T22:20:17.573Z,100379.73
2019-02-18T22:22:46.439Z,100380.72
2019-02-18T22:25:15.178Z,100382.14
2019-02-18T22:27:44.008Z,100374.44
2019-02-18T22:30:15.805Z,100382.91
2019-02-18T22:32:44.530Z,100388.48
2019-02-18T22:35:13.634Z,100386.58
2019-02-18T22:37:42.790Z,100389.05
2019-02-18T22:40:13.229Z,100393.42
2019-02-18T22:42:41.962Z,100397.13
2019-02-18T22:45:14.065Z,100400.56
2019-02-18T22:47:42.793Z,100398.92
2019-02-18T22:50:12.443Z,100410.03
2019-02-18T22:52:41.243Z,100412.80
2019-02-18T22:55:10.874Z,100405.41
2019-02-18T22:57:39.625Z,100408.44
2019-02-18T23:00:28.020Z,100407.62
2019-02-18T23:02:57.118Z,100407.48
2019-02-18T23:05:26.762Z,100411.59
2019-02-18T23:07:55.624Z,100412.12
2019-02-18T23:10:24.347Z,100413.73
2019-02-18T23:12:53.075Z,100414.98
2019-02-18T23:15:22.153Z,100415.20
2019-02-18T23:17:50.873Z,100411.04
2019-02-18T23:20:19.600Z,100414.21
2019-02-18T23:22:48.374Z,100418.31
2019-02-18T23:25:17.141Z,100421.00
2019-02-18T23:27:45.868Z,100419.15
2019-02-18T23:30:14.757Z,100418.50
2019-02-18T23:32:43.497Z,100415.92
2019-02-18T23:35:12.503Z,100409.63
2019-02-18T23:37:41.415Z,100412.70
2019-02-18T23:40:10.129Z,100415.50
2019-02-18T23:42:38.853Z,100408.03
2019-02-18T23:45:07.907Z,100409.54
2019-02-18T23:47:36.634Z,100409.81
2019-02-18T23:50:06.003Z,100412.08
2019-02-18T23:52:34.897Z,100408.70
2019-02-18T23:55:04.120Z,100414.02
2019-02-18T23:57:32.846Z,100411.73
